Atlantic - Newfoundland: Past 24 Hour Conditions

 

Winterland

02:30 AM NDT 21 April 2014
This table is a summary of hourly weather conditions for the past 24 hours.
Date / Time
(NDT)
Wind(knots) Conditions Visibility(km) Pressure(kPa) Air tempC) Relative humidity(%) Dew pointC) Wind Chill
21 April 2014
2:30 W 12 Clear 15 101.8 -2 76 -6 -8
1:30 W 13 Clear 15 101.9 -2 74 -6 -8
0:30 WNW 8 Clear 15 101.9 -2 68 -7 -7
20 April 2014
23:30 WNW 10 Clear 15 101.9 -1 63 -7 -7
22:30 WNW 8 Clear 15 101.9 -1 63 -7 -6
21:30 NW 14 gust 21 Clear 15 101.8 1 52 -8 *
20:30 NW 13 gust 20 Clear 15 101.7 1 57 -7 *
19:30 NW 19 gust 29 Light Snow 15 101.6 2 51 -7 *
18:30 NW 22 gust 30 Light Snow 15 101.5 3 41 -9 *
17:30 WNW 23 gust 30 Light Snow 15 101.4 4 45 -7 *
16:30 WNW 25 gust 35 Light Snow 15 101.4 4 50 -5 *
15:30 WNW 22 gust 30 Light Snow 15 101.4 4 64 -2 *
14:30 W 25 gust 33 Light Snow 15 101.4 4 71 -1 *
13:30 WNW 20 gust 29 Light Snow 15 101.4 3 65 -3 *
12:30 WNW 21 gust 26 Mostly Cloudy 15 101.5 3 66 -3 *
11:30 WNW 15 Sunny 15 101.5 2 69 -4 *
10:30 NW 13 gust 19 Cloudy 15 101.5 1 76 -3 *
9:30 NNW 17 Light Snow 15 101.4 0 75 -4 -7
8:30 NW 17 gust 22 Cloudy 15 101.3 -1 80 -4 -8
7:30 NNW 12 gust 22 Cloudy 15 101.2 -1 82 -4 -7
6:30 NNW 11 Cloudy 15 101.1 -2 85 -4 -7
5:30 NNW 12 gust 17 Cloudy 15 101.0 -2 84 -4 -7
4:30 NNW 15 gust 20 Mostly Cloudy 15 100.9 -2 82 -4 -8
3:30 NNW 14 Light Snow 6 100.8 -1 94 -2 -7
2:30 NW 10 Light Snow 2 100.8 -2 97 -2 -7
 
Map of Atlantic - Newfoundland marine weather areas Southwestern Grand Banks - 44138 Banquereau - 44139 Tail of the Bank - 44140 Nickerson Bank - 44251 Northeast Burgeo Bank - 44255 Blanc-Sablon Airport Cap Whittle Chevery Natashquan Airport Heath Point Miscou Island Grand Étang Ingonish Beach North Mountain St.Paul Island J.A. Douglas McCurdy Sydney Airport Charlottetown Airport East Point North Cape Argentia Bonavista Burgeo Cape Race Corner Brook Daniel's Harbour Englee Ferolle Point La Scie Port aux Basques Rocky Harbour Sagona Island St. Anthony Airport St. John's Int'l Airport St. Lawrence Stephenville Airport Twillingate Winterland Wreckhouse Cartwright Airport Mary's Harbour Grates Cove Pool's Island Marticot Island Long Pond Îles de la Madeleine Airport
Legend: buoyBuoy land stationLand Station